createdAt,value
2022-08-12T00:02:07.798Z,100983.63
2022-08-12T00:04:50.050Z,100975.69
2022-08-12T00:07:32.417Z,100974.88
2022-08-12T00:10:14.488Z,100969.66
2022-08-12T00:12:56.489Z,100969.75
2022-08-12T00:15:41.513Z,100974.81
2022-08-12T00:18:23.598Z,100969.53
2022-08-12T00:21:05.583Z,100966.19
2022-08-12T00:23:47.558Z,100968.66
2022-08-12T00:26:30.037Z,100962.50
2022-08-12T00:29:12.174Z,100959.97
2022-08-12T00:31:57.469Z,100962.41
2022-08-12T00:34:39.442Z,100955.41
2022-08-12T00:37:21.929Z,100961.41
2022-08-12T00:40:04.702Z,100962.28
2022-08-12T00:42:39.555Z,100970.09
2022-08-12T00:45:10.192Z,100971.03
2022-08-12T00:47:42.906Z,100965.81
2022-08-12T00:50:18.840Z,100963.06
2022-08-12T00:52:48.742Z,100958.84
2022-08-12T00:55:19.514Z,100967.38
2022-08-12T00:57:52.028Z,100962.13
2022-08-12T01:00:24.063Z,100963.84
2022-08-12T01:02:58.700Z,100967.00
2022-08-12T01:05:41.826Z,100958.31
2022-08-12T01:08:24.495Z,100949.81
2022-08-12T01:11:07.154Z,100947.38
2022-08-12T01:13:44.839Z,100955.97
2022-08-12T01:16:14.449Z,100958.50
2022-08-12T01:18:47.840Z,100959.41
2022-08-12T01:21:30.925Z,100953.97
2022-08-12T01:24:29.827Z,100951.97
2022-08-12T01:27:07.674Z,100944.00
2022-08-12T01:29:41.870Z,100914.44
2022-08-12T01:32:14.451Z,100916.09
2022-08-12T01:34:57.530Z,100913.56
2022-08-12T01:37:28.391Z,100917.88
2022-08-12T01:40:33.540Z,100922.66
2022-08-12T01:42:54.318Z,100915.72
2022-08-12T01:45:25.573Z,100911.91
2022-08-12T01:48:06.853Z,100895.47
2022-08-12T01:50:40.220Z,100899.88
2022-08-12T01:53:16.072Z,100901.03
2022-08-12T01:55:48.963Z,100903.53
2022-08-12T01:58:27.833Z,100910.41
2022-08-12T02:00:59.364Z,100914.81
2022-08-12T02:03:58.965Z,100920.81
2022-08-12T02:06:45.502Z,100915.56
2022-08-12T02:09:29.537Z,100923.47
2022-08-12T02:12:08.556Z,100934.69
2022-08-12T02:14:54.275Z,100934.50
2022-08-12T02:17:55.018Z,100934.56
2022-08-12T02:20:35.311Z,100928.53
2022-08-12T02:23:22.621Z,100926.44
2022-08-12T02:25:55.573Z,100937.78
2022-08-12T02:28:25.421Z,100940.13
2022-08-12T02:30:58.411Z,100940.25
2022-08-12T02:33:27.950Z,100953.28
2022-08-12T02:35:57.663Z,100959.47
2022-08-12T02:38:29.569Z,100957.75
2022-08-12T02:41:01.030Z,100961.06
2022-08-12T02:43:35.305Z,100959.84
2022-08-12T02:46:13.794Z,100957.97
2022-08-12T02:48:54.861Z,100948.59
2022-08-12T02:51:26.722Z,100947.56
2022-08-12T02:54:04.615Z,100943.22
2022-08-12T02:56:37.845Z,100945.69
2022-08-12T02:59:12.110Z,100945.72
2022-08-12T03:01:49.819Z,100945.63
2022-08-12T03:04:30.049Z,100952.28
2022-08-12T03:07:07.817Z,100949.91
2022-08-12T03:10:03.827Z,100948.34
2022-08-12T03:12:34.544Z,100955.19
2022-08-12T03:15:09.923Z,100961.88
2022-08-12T03:18:24.588Z,100952.09
2022-08-12T03:20:46.157Z,100949.38
2022-08-12T03:23:29.367Z,100943.25
2022-08-12T03:26:01.942Z,100943.03
2022-08-12T03:28:46.029Z,100941.03
2022-08-12T03:31:15.516Z,100934.94
2022-08-12T03:34:01.402Z,100928.91
2022-08-12T03:36:35.414Z,100928.03
2022-08-12T03:39:35.575Z,100923.78
2022-08-12T03:42:12.015Z,100919.50
2022-08-12T03:44:56.241Z,100924.69
2022-08-12T03:47:41.283Z,100921.03
2022-08-12T03:50:25.956Z,100919.25
2022-08-12T03:53:08.006Z,100923.59
2022-08-12T03:55:50.107Z,100918.38
2022-08-12T03:58:32.358Z,100911.44
2022-08-12T04:01:01.925Z,100907.91
2022-08-12T04:03:44.606Z,100905.19
2022-08-12T04:06:16.746Z,100901.91
2022-08-12T04:09:14.726Z,100911.41
2022-08-12T04:11:59.906Z,100908.03
2022-08-12T04:14:30.424Z,100903.75
2022-08-12T04:17:00.394Z,100913.16
2022-08-12T04:19:30.954Z,100905.19
2022-08-12T04:22:03.966Z,100905.13
2022-08-12T04:24:35.369Z,100895.56
2022-08-12T04:27:06.008Z,100894.50
2022-08-12T04:30:29.750Z,100898.03
2022-08-12T04:32:26.883Z,100904.13
2022-08-12T04:34:58.026Z,100895.78
2022-08-12T04:37:30.129Z,100900.38
2022-08-12T04:40:28.029Z,100901.91
2022-08-12T04:42:58.329Z,100907.09
2022-08-12T04:45:27.788Z,100906.34
2022-08-12T04:47:57.290Z,100903.88
2022-08-12T04:50:36.148Z,100908.28
2022-08-12T04:53:10.070Z,100906.69
2022-08-12T04:55:40.569Z,100910.97
2022-08-12T04:58:10.388Z,100910.13
2022-08-12T05:00:43.490Z,100903.22
2022-08-12T05:03:14.080Z,100900.72
2022-08-12T05:05:43.981Z,100906.16
2022-08-12T05:08:18.456Z,100914.00
2022-08-12T05:10:49.071Z,100912.41
2022-08-12T05:13:20.103Z,100916.84
2022-08-12T05:16:03.729Z,100917.56
2022-08-12T05:18:38.453Z,100919.25
2022-08-12T05:21:09.699Z,100920.19
2022-08-12T05:23:43.597Z,100924.56
2022-08-12T05:26:13.397Z,100923.88
2022-08-12T05:28:43.266Z,100930.16
2022-08-12T05:31:12.734Z,100925.97
2022-08-12T05:33:45.698Z,100927.78
2022-08-12T05:36:17.592Z,100936.44
2022-08-12T05:38:59.842Z,100944.28
2022-08-12T05:41:31.366Z,100952.16
2022-08-12T05:44:02.634Z,100947.00
2022-08-12T05:46:33.424Z,100952.31
2022-08-12T05:49:03.495Z,100950.63
2022-08-12T05:51:40.177Z,100962.06
2022-08-12T05:54:14.210Z,100947.41
2022-08-12T05:56:43.994Z,100957.09
2022-08-12T05:59:14.450Z,100957.25
2022-08-12T06:02:10.727Z,100961.72
2022-08-12T06:04:35.397Z,100973.16
2022-08-12T06:07:59.408Z,100968.03
2022-08-12T06:10:00.952Z,100978.66
2022-08-12T06:12:30.927Z,100986.69
2022-08-12T06:15:01.997Z,100991.19
2022-08-12T06:17:32.018Z,101040.03
2022-08-12T06:20:28.854Z,101051.50
2022-08-12T06:22:54.603Z,101078.69
2022-08-12T06:25:29.283Z,101085.75
2022-08-12T06:28:07.875Z,101099.00
2022-08-12T06:30:39.735Z,101114.78
2022-08-12T06:33:18.611Z,101119.22
2022-08-12T06:35:51.490Z,101130.69
2022-08-12T06:38:23.039Z,101131.91
2022-08-12T06:41:09.650Z,101147.00
2022-08-12T06:44:07.187Z,101165.50
2022-08-12T06:46:30.850Z,101184.06
2022-08-12T06:49:01.550Z,101201.59
2022-08-12T06:51:32.805Z,101220.03
2022-08-12T06:54:03.166Z,101236.63
2022-08-12T06:59:26.194Z,101247.28
2022-08-12T07:01:55.625Z,101256.00
2022-08-12T07:04:36.275Z,101257.03
2022-08-12T07:07:09.717Z,101258.06
2022-08-12T07:10:05.470Z,101257.38
2022-08-12T07:12:32.182Z,101263.69
2022-08-12T07:15:02.806Z,101276.09
2022-08-12T07:17:35.932Z,101281.44
2022-08-12T07:20:10.075Z,101279.81
2022-08-12T07:22:41.902Z,101275.53
2022-08-12T07:25:24.586Z,101273.00
2022-08-12T07:28:01.323Z,101294.91
2022-08-12T07:30:40.304Z,101308.19
2022-08-12T07:33:11.445Z,101323.19
2022-08-12T07:35:45.442Z,101323.28
2022-08-12T07:38:29.784Z,101315.56
2022-08-12T07:41:06.203Z,101309.53
2022-08-12T07:43:39.979Z,101361.16
2022-08-12T07:46:11.316Z,101370.06
2022-08-12T07:48:43.465Z,101384.09
2022-08-12T07:51:24.978Z,101402.53
2022-08-12T07:54:00.920Z,101410.47
2022-08-12T07:56:33.334Z,101405.28
2022-08-12T07:59:08.838Z,101393.13
2022-08-12T08:01:39.654Z,101408.91
2022-08-12T08:04:22.748Z,101422.13
2022-08-12T08:06:52.994Z,101445.84
2022-08-12T08:09:24.694Z,101464.31
2022-08-12T08:12:07.538Z,101467.00
2022-08-12T08:14:40.757Z,101480.19
2022-08-12T08:17:10.420Z,101486.44
2022-08-12T08:20:01.928Z,101501.44
2022-08-12T08:22:40.734Z,101501.53
2022-08-12T08:25:34.880Z,101498.94
2022-08-12T08:28:02.764Z,101507.75
2022-08-12T08:30:35.452Z,101495.56
2022-08-12T08:33:23.011Z,101517.53
2022-08-12T08:35:55.886Z,101540.38
2022-08-12T08:38:33.060Z,101565.91
2022-08-12T08:42:16.225Z,101566.81
2022-08-12T08:44:07.652Z,101569.47
2022-08-12T08:46:40.082Z,101571.25
2022-08-12T08:49:09.917Z,101580.06
2022-08-12T08:51:39.731Z,101599.41
2022-08-12T08:54:12.233Z,101594.16
2022-08-12T08:56:49.992Z,101586.31
2022-08-12T08:59:22.354Z,101590.72
2022-08-12T09:01:54.518Z,101613.56
2022-08-12T09:05:12.053Z,101624.97
2022-08-12T09:07:18.129Z,101618.84
2022-08-12T09:10:04.175Z,101605.63
2022-08-12T09:12:46.555Z,101621.47
2022-08-12T09:15:35.401Z,101624.97
2022-08-12T09:18:11.101Z,101636.41
2022-08-12T09:20:42.374Z,101632.84
2022-08-12T09:23:59.027Z,101638.94
2022-08-12T09:28:54.029Z,101644.19
2022-08-12T09:32:06.804Z,101642.41
2022-08-12T09:34:25.678Z,101649.38
2022-08-12T09:37:02.488Z,101663.41
2022-08-12T09:40:05.801Z,101669.53
2022-08-12T09:42:49.238Z,101671.22
2022-08-12T09:46:11.902Z,101681.69
2022-08-12T09:48:23.466Z,101671.03
2022-08-12T09:51:01.442Z,101671.88
2022-08-12T09:53:38.669Z,101669.22
2022-08-12T09:56:59.461Z,101679.72
2022-08-12T09:59:04.344Z,101687.50
2022-08-12T10:02:42.294Z,101695.38
2022-08-12T10:04:24.040Z,101697.97
2022-08-12T10:06:57.969Z,101695.25
2022-08-12T10:09:28.829Z,101689.00
2022-08-12T10:12:41.868Z,101695.06
2022-08-12T10:16:00.849Z,101698.34
2022-08-12T10:18:07.377Z,101696.47
2022-08-12T10:20:37.445Z,101692.78
2022-08-12T10:23:12.480Z,101688.34
2022-08-12T10:26:37.944Z,101687.28
2022-08-12T10:29:02.927Z,101692.53
2022-08-12T10:32:19.822Z,101679.34
2022-08-12T10:34:26.680Z,101680.19
2022-08-12T10:37:10.535Z,101678.28
2022-08-12T10:40:00.882Z,101678.84
2022-08-12T10:42:53.824Z,101669.84
2022-08-12T10:45:23.912Z,101664.44
2022-08-12T10:48:19.123Z,101666.84
2022-08-12T10:50:56.674Z,101658.09
2022-08-12T10:53:44.325Z,101652.81
2022-08-12T10:56:22.261Z,101648.75
2022-08-12T10:58:52.642Z,101643.41
2022-08-12T11:01:50.665Z,101648.63
2022-08-12T11:04:24.858Z,101642.19
2022-08-12T11:08:36.294Z,101637.72
2022-08-12T11:10:00.549Z,101639.09
2022-08-12T11:12:58.562Z,101636.66
2022-08-12T11:16:02.914Z,101632.94
2022-08-12T11:18:19.275Z,101630.31
2022-08-12T11:20:52.015Z,101635.47
2022-08-12T11:23:35.896Z,101625.53
2022-08-12T11:26:08.434Z,101640.56
2022-08-12T11:28:41.087Z,101640.44
2022-08-12T11:31:14.299Z,101640.41
2022-08-12T11:34:06.678Z,101633.84
2022-08-12T11:36:39.171Z,101635.28
2022-08-12T11:39:12.512Z,101621.81
2022-08-12T11:41:43.021Z,101629.63
2022-08-12T11:44:36.967Z,101624.00
2022-08-12T11:47:09.565Z,101619.66
2022-08-12T11:49:39.238Z,101623.47
2022-08-12T11:52:27.959Z,101616.50
2022-08-12T11:54:58.519Z,101611.13
2022-08-12T11:58:17.168Z,101619.88
2022-08-12T12:02:01.304Z,101614.34
2022-08-12T12:03:12.579Z,101624.63
2022-08-12T12:05:46.855Z,101622.63
2022-08-12T12:08:37.249Z,101620.84
2022-08-12T12:11:12.074Z,101612.78
2022-08-12T12:14:07.813Z,101618.69
2022-08-12T12:16:38.167Z,101605.25
2022-08-12T12:19:10.286Z,101603.94
2022-08-12T12:21:46.913Z,101602.19
2022-08-12T12:24:21.670Z,101601.50
2022-08-12T12:26:59.664Z,101602.22
2022-08-12T12:30:14.053Z,101593.66
2022-08-12T12:32:29.511Z,101587.25
2022-08-12T12:35:13.133Z,101591.78
2022-08-12T12:38:05.498Z,101588.19
2022-08-12T12:40:43.904Z,101594.22
2022-08-12T12:43:14.209Z,101577.25
2022-08-12T12:45:46.320Z,101570.56
2022-08-12T12:48:20.010Z,101563.97
2022-08-12T12:51:10.930Z,101566.47
2022-08-12T12:54:08.161Z,101558.94
2022-08-12T12:56:34.794Z,101562.31
2022-08-12T12:59:05.953Z,101561.94
2022-08-12T13:01:41.758Z,101566.25
2022-08-12T13:04:14.416Z,101569.06
2022-08-12T13:06:44.302Z,101558.03
2022-08-12T13:09:14.057Z,101554.88
2022-08-12T13:11:44.725Z,101557.88
2022-08-12T13:14:30.869Z,101551.22
2022-08-12T13:17:02.555Z,101560.56
2022-08-12T13:19:44.556Z,101557.28
2022-08-12T13:22:20.791Z,101558.06
2022-08-12T13:24:54.798Z,101540.78
2022-08-12T13:27:35.237Z,101541.88
2022-08-12T13:30:11.699Z,101538.41
2022-08-12T13:32:56.728Z,101535.38
2022-08-12T13:36:03.052Z,101545.72
2022-08-12T13:38:26.517Z,101548.53
2022-08-12T13:40:58.481Z,101544.91
2022-08-12T13:43:40.398Z,101541.19
2022-08-12T13:46:12.275Z,101542.97
2022-08-12T13:48:44.664Z,101533.09
2022-08-12T13:51:24.129Z,101541.44
2022-08-12T13:53:59.022Z,101530.84
2022-08-12T13:56:35.175Z,101536.22
2022-08-12T13:59:07.796Z,101532.47
2022-08-12T14:01:40.717Z,101530.59
2022-08-12T14:04:11.483Z,101525.00
2022-08-12T14:06:44.926Z,101520.75
2022-08-12T14:09:17.899Z,101524.19
2022-08-12T14:11:58.980Z,101516.00
2022-08-12T14:14:31.309Z,101517.03
2022-08-12T14:17:10.374Z,101521.59
2022-08-12T14:20:00.868Z,101518.09
2022-08-12T14:22:33.778Z,101517.41
2022-08-12T14:25:03.515Z,101517.09
2022-08-12T14:28:03.195Z,101523.91
2022-08-12T14:30:29.196Z,101514.16
2022-08-12T14:33:02.923Z,101509.19
2022-08-12T14:35:41.069Z,101516.56
2022-08-12T14:38:26.098Z,101516.56
2022-08-12T14:40:58.750Z,101520.81
2022-08-12T14:43:58.920Z,101515.91
2022-08-12T14:46:24.515Z,101512.09
2022-08-12T14:48:55.247Z,101512.00
2022-08-12T14:52:55.965Z,101511.75
2022-08-12T14:57:20.285Z,101505.56
2022-08-12T15:00:06.009Z,101504.81
2022-08-12T15:02:35.570Z,101500.31
2022-08-12T15:05:05.067Z,101506.91
2022-08-12T15:07:48.912Z,101495.66
2022-08-12T15:10:31.114Z,101500.84
2022-08-12T15:13:07.653Z,101496.00
2022-08-12T15:15:45.611Z,101489.31
2022-08-12T15:18:21.195Z,101495.16
2022-08-12T15:20:52.507Z,101484.81
2022-08-12T15:23:29.179Z,101496.06
2022-08-12T15:26:26.706Z,101489.13
2022-08-12T15:28:58.437Z,101493.13
2022-08-12T15:32:00.710Z,101488.41
2022-08-12T15:34:17.472Z,101485.59
2022-08-12T15:36:55.268Z,101477.03
2022-08-12T15:39:27.666Z,101480.09
2022-08-12T15:42:00.514Z,101486.47
2022-08-12T15:44:41.556Z,101484.53
2022-08-12T15:47:12.881Z,101481.25
2022-08-12T15:50:00.314Z,101487.66
2022-08-12T15:52:32.255Z,101478.88
2022-08-12T15:55:05.990Z,101483.75
2022-08-12T15:57:53.824Z,101477.56
2022-08-12T16:00:33.441Z,101473.63
2022-08-12T16:03:05.407Z,101476.81
2022-08-12T16:06:13.340Z,101474.56
2022-08-12T16:08:27.381Z,101469.81
2022-08-12T16:10:57.627Z,101470.88
2022-08-12T16:13:34.879Z,101474.44
2022-08-12T16:16:22.838Z,101469.38
2022-08-12T16:18:59.661Z,101464.44
2022-08-12T16:21:50.619Z,101466.56
2022-08-12T16:24:21.988Z,101465.66
2022-08-12T16:26:54.011Z,101467.53
2022-08-12T16:29:38.661Z,101467.81
2022-08-12T16:32:31.130Z,101463.50
2022-08-12T16:35:01.930Z,101455.56
2022-08-12T16:38:24.747Z,101461.13
2022-08-12T16:40:24.042Z,101454.06
2022-08-12T16:43:01.736Z,101447.38
2022-08-12T16:46:04.987Z,101452.13
2022-08-12T16:48:35.459Z,101453.25
2022-08-12T16:51:09.389Z,101451.63
2022-08-12T16:53:43.694Z,101447.44
2022-08-12T16:56:17.447Z,101441.44
2022-08-12T16:58:47.734Z,101444.88
2022-08-12T17:01:20.031Z,101436.09
2022-08-12T17:04:08.126Z,101441.44
2022-08-12T17:06:41.603Z,101439.56
2022-08-12T17:09:17.783Z,101440.41
2022-08-12T17:11:49.059Z,101447.72
2022-08-12T17:14:23.443Z,101444.28
2022-08-12T17:16:57.031Z,101434.75
2022-08-12T17:20:29.357Z,101435.84
2022-08-12T17:22:21.663Z,101436.19
2022-08-12T17:24:55.607Z,101444.16
2022-08-12T17:27:26.314Z,101440.78
2022-08-12T17:30:02.348Z,101438.31
2022-08-12T17:32:36.753Z,101434.84
2022-08-12T17:35:20.160Z,101435.84
2022-08-12T17:37:51.038Z,101434.34
2022-08-12T17:40:36.139Z,101433.50
2022-08-12T17:43:56.048Z,101431.84
2022-08-12T17:46:00.043Z,101431.91
2022-08-12T17:48:38.731Z,101418.84
2022-08-12T17:51:15.539Z,101428.72
2022-08-12T17:54:11.808Z,101424.47
2022-08-12T17:56:37.460Z,101422.84
2022-08-12T17:59:08.998Z,101424.66
2022-08-12T18:01:39.151Z,101421.28
2022-08-12T18:04:21.864Z,101419.59
2022-08-12T18:06:53.911Z,101415.25
2022-08-12T18:09:31.835Z,101416.16
2022-08-12T18:12:24.726Z,101419.75
2022-08-12T18:15:08.807Z,101407.50
2022-08-12T18:17:43.127Z,101405.84
2022-08-12T18:20:20.170Z,101405.91
2022-08-12T18:22:55.728Z,101403.34
2022-08-12T18:26:12.212Z,101404.25
2022-08-12T18:28:31.445Z,101408.69
2022-08-12T18:31:03.550Z,101410.53
2022-08-12T18:33:43.903Z,101400.88
2022-08-12T18:36:22.727Z,101397.41
2022-08-12T18:38:56.161Z,101406.22
2022-08-12T18:41:33.506Z,101408.00
2022-08-12T18:44:06.085Z,101403.63
2022-08-12T18:46:53.983Z,101403.66
2022-08-12T18:49:33.078Z,101406.31
2022-08-12T18:52:07.929Z,101394.91
2022-08-12T18:54:49.239Z,101404.59
2022-08-12T18:58:05.972Z,101401.13
2022-08-12T19:00:21.339Z,101398.50
2022-08-12T19:02:53.073Z,101398.53
2022-08-12T19:05:54.353Z,101398.50
2022-08-12T19:08:17.529Z,101395.91
2022-08-12T19:10:50.094Z,101393.28
2022-08-12T19:13:33.449Z,101396.75
2022-08-12T19:16:12.640Z,101388.88
2022-08-12T19:18:43.098Z,101383.63
2022-08-12T19:21:16.978Z,101376.59
2022-08-12T19:24:14.173Z,101378.34
2022-08-12T19:26:42.570Z,101373.97
2022-08-12T19:29:13.509Z,101359.94
2022-08-12T19:31:58.785Z,101359.94
2022-08-12T19:37:26.600Z,101357.28
2022-08-12T19:40:08.960Z,101350.28
2022-08-12T19:42:44.476Z,101357.28
2022-08-12T19:45:15.754Z,101342.34
2022-08-12T19:47:46.863Z,101336.19
2022-08-12T19:50:19.992Z,101323.03
2022-08-12T19:52:53.461Z,101335.31
2022-08-12T19:55:27.526Z,101331.78
2022-08-12T19:58:02.894Z,101325.66
2022-08-12T20:00:35.286Z,101323.88
2022-08-12T20:03:06.495Z,101320.38
2022-08-12T20:06:08.203Z,101312.47
2022-08-12T20:08:34.159Z,101308.94
2022-08-12T20:12:11.891Z,101313.31
2022-08-12T20:14:01.271Z,101304.53
2022-08-12T20:19:28.557Z,101306.19
2022-08-12T20:22:24.292Z,101308.81
2022-08-12T20:25:01.702Z,101301.75
2022-08-12T20:28:05.450Z,101299.13
2022-08-12T20:30:37.596Z,101296.44
2022-08-12T20:33:23.000Z,101303.44
2022-08-12T20:36:06.712Z,101302.50
2022-08-12T20:38:45.993Z,101305.13
2022-08-12T20:41:19.165Z,101294.59
2022-08-12T20:43:54.810Z,101290.22
2022-08-12T20:46:31.582Z,101291.91
2022-08-12T20:49:01.700Z,101287.50
2022-08-12T20:51:54.649Z,101287.50
2022-08-12T20:54:32.909Z,101283.13
2022-08-12T20:57:09.912Z,101272.63
2022-08-12T20:59:49.428Z,101275.22
2022-08-12T21:02:24.310Z,101284.81
2022-08-12T21:05:16.448Z,101283.94
2022-08-12T21:07:52.359Z,101283.00
2022-08-12T21:10:26.449Z,101285.56
2022-08-12T21:12:57.678Z,101284.66
2022-08-12T21:15:54.762Z,101286.38
2022-08-12T21:18:28.453Z,101279.38
2022-08-12T21:20:59.126Z,101285.44
2022-08-12T21:23:31.011Z,101285.41
2022-08-12T21:26:11.212Z,101281.91
2022-08-12T21:28:41.549Z,101293.25
2022-08-12T21:32:36.054Z,101287.09
2022-08-12T21:34:07.960Z,101288.78
2022-08-12T21:36:43.115Z,101287.88
2022-08-12T21:39:21.350Z,101283.50
2022-08-12T21:41:52.756Z,101280.91
2022-08-12T21:44:24.272Z,101268.63
2022-08-12T21:47:20.826Z,101280.78
2022-08-12T21:50:03.974Z,101275.47
2022-08-12T21:52:40.484Z,101273.69
2022-08-12T21:55:18.703Z,101268.44
2022-08-12T21:57:53.274Z,101264.88
2022-08-12T22:00:32.086Z,101257.88
2022-08-12T22:04:03.320Z,101256.03
2022-08-12T22:06:31.159Z,101256.06
2022-08-12T22:09:15.604Z,101265.56
2022-08-12T22:11:56.400Z,101268.13
2022-08-12T22:14:29.573Z,101254.13
2022-08-12T22:17:01.499Z,101252.38
2022-08-12T22:19:37.472Z,101255.78
2022-08-12T22:22:07.864Z,101255.78
2022-08-12T22:24:38.422Z,101249.66
2022-08-12T22:27:32.289Z,101247.88
2022-08-12T22:30:17.041Z,101243.50
2022-08-12T22:32:54.683Z,101240.81
2022-08-12T22:35:55.699Z,101239.91
2022-08-12T22:38:26.681Z,101228.53
2022-08-12T22:41:00.744Z,101228.50
2022-08-12T22:43:58.544Z,101231.03
2022-08-12T22:46:41.660Z,101217.88
2022-08-12T22:49:36.340Z,101217.75
2022-08-12T22:52:11.486Z,101208.94
2022-08-12T22:54:46.110Z,101209.78
2022-08-12T22:57:49.038Z,101201.84
2022-08-12T23:00:24.130Z,101211.38
2022-08-12T23:03:02.654Z,101203.53
2022-08-12T23:05:57.483Z,101191.22
2022-08-12T23:08:32.055Z,101188.47
2022-08-12T23:11:04.655Z,101189.28
2022-08-12T23:13:55.366Z,101178.84
2022-08-12T23:16:31.511Z,101181.44
2022-08-12T23:19:11.086Z,101182.34
2022-08-12T23:22:06.108Z,101173.56
2022-08-12T23:24:53.953Z,101170.06
2022-08-12T23:27:50.877Z,101170.88
2022-08-12T23:30:25.243Z,101156.84
2022-08-12T23:33:02.271Z,101150.72
2022-08-12T23:35:53.822Z,101155.94
2022-08-12T23:38:31.638Z,101153.28
2022-08-12T23:41:06.779Z,101155.84
2022-08-12T23:43:39.629Z,101149.72
2022-08-12T23:46:19.169Z,101150.63
2022-08-12T23:48:50.472Z,101151.53
2022-08-12T23:51:25.331Z,101143.59
2022-08-12T23:54:00.201Z,101143.47
2022-08-12T23:56:34.280Z,101125.94
2022-08-12T23:59:04.715Z,101120.78
